Time;durP1;ratioP1;P1;durP2;ratioP2;P2;SDS_P1;SDS_P2;PMS_P1;PMS_P2;Temp;Humidity;BMP_temperature;BMP_pressure;BME280_temperature;BME280_humidity;BME280_pressure;Samples;Min_cycle;Max_cycle;Signal;HPM_P1;HPM_P2
2022/01/27 00:00:42;;;;;;;132.98;43.40;;;3.80;98.10;;;;;;4989594;28;20038;-72
2022/01/27 00:05:51;;;;;;;107.78;36.42;;;3.80;98.10;;;;;;4987886;28;20046;-72
2022/01/27 00:08:22;;;;;;;140.25;45.47;;;3.80;98.00;;;;;;4988894;28;20031;-73
2022/01/27 00:10:52;;;;;;;125.97;43.05;;;3.80;98.00;;;;;;4977190;28;20030;-73
2022/01/27 00:13:20;;;;;;;123.28;40.50;;;3.90;97.90;;;;;;4990927;28;20442;-73
2022/01/27 00:15:57;;;;;;;111.85;40.17;;;3.80;97.90;;;;;;4989316;28;20074;-73
2022/01/27 00:18:23;;;;;;;114.60;40.70;;;3.90;97.90;;;;;;4988240;28;20026;-73
2022/01/27 00:20:48;;;;;;;131.95;44.10;;;3.90;97.90;;;;;;4986959;28;20046;-73
2022/01/27 00:23:15;;;;;;;123.05;40.40;;;3.90;97.80;;;;;;4989202;28;20391;-73
2022/01/27 00:25:41;;;;;;;121.13;43.03;;;3.90;97.70;;;;;;4982911;28;20031;-72
2022/01/27 00:28:07;;;;;;;127.28;43.50;;;3.90;97.60;;;;;;4984943;28;20088;-73
2022/01/27 00:30:34;;;;;;;139.10;46.42;;;3.90;97.60;;;;;;4985149;28;20386;-73
2022/01/27 00:33:00;;;;;;;113.20;40.28;;;3.90;97.60;;;;;;4981592;28;20528;-72
2022/01/27 00:35:26;;;;;;;92.72;35.17;;;3.90;97.60;;;;;;4984052;28;20023;-72
2022/01/27 00:37:51;;;;;;;133.48;44.45;;;3.90;97.60;;;;;;4981596;28;20104;-73
2022/01/27 00:40:17;;;;;;;109.90;38.17;;;3.90;97.60;;;;;;4980612;28;20077;-72
2022/01/27 00:42:43;;;;;;;122.07;44.97;;;3.90;97.60;;;;;;4989261;28;20034;-73
2022/01/27 00:45:09;;;;;;;98.18;36.15;;;3.90;97.60;;;;;;4990073;28;20054;-73
2022/01/27 00:47:35;;;;;;;115.05;42.72;;;3.90;97.60;;;;;;4989919;28;20035;-73
2022/01/27 00:50:01;;;;;;;99.18;39.88;;;3.80;97.60;;;;;;4989125;28;20042;-73
2022/01/27 00:52:37;;;;;;;128.50;45.38;;;3.80;97.60;;;;;;4988657;28;20039;-73
2022/01/27 00:55:04;;;;;;;105.15;39.88;;;3.80;97.70;;;;;;4989180;28;20446;-73
2022/01/27 00:57:41;;;;;;;110.53;44.10;;;3.80;97.70;;;;;;4994742;28;20038;-73
2022/01/27 01:00:09;;;;;;;104.90;41.72;;;3.80;97.70;;;;;;4989337;28;20034;-73
2022/01/27 01:02:50;;;;;;;106.15;40.35;;;3.80;97.70;;;;;;4988112;28;20121;-72
2022/01/27 01:08:23;;;;;;;95.90;38.20;;;3.80;97.70;;;;;;4992348;28;20077;-73
2022/01/27 01:15:54;;;;;;;111.65;40.90;;;3.80;97.50;;;;;;4993334;28;20475;-73
2022/01/27 01:18:35;;;;;;;114.28;43.85;;;3.80;97.30;;;;;;4993723;28;20033;-73
2022/01/27 01:34:26;;;;;;;84.30;34.35;;;3.90;96.40;;;;;;4993099;28;20173;-73
2022/01/27 01:36:56;;;;;;;89.10;34.63;;;3.90;96.10;;;;;;4991120;28;20019;-73
2022/01/27 01:39:27;;;;;;;76.68;34.47;;;4.00;95.90;;;;;;4987995;28;20386;-73
2022/01/27 01:41:53;;;;;;;80.35;36.65;;;4.00;95.80;;;;;;4990498;28;20412;-73
2022/01/27 01:44:20;;;;;;;77.30;32.55;;;4.00;95.60;;;;;;4993235;28;20029;-73
2022/01/27 01:46:46;;;;;;;79.72;35.17;;;4.00;95.60;;;;;;4989496;28;20153;-73
2022/01/27 01:49:12;;;;;;;57.53;28.17;;;4.10;95.40;;;;;;4991906;28;20031;-73
2022/01/27 01:51:39;;;;;;;68.47;31.92;;;4.00;95.30;;;;;;4989519;28;20026;-73
2022/01/27 01:54:06;;;;;;;59.20;29.15;;;4.10;95.10;;;;;;4991913;28;20065;-73
2022/01/27 01:56:32;;;;;;;56.42;27.42;;;4.10;95.10;;;;;;4980144;28;20034;-73
2022/01/27 01:58:58;;;;;;;67.22;32.10;;;4.00;95.20;;;;;;4980485;28;20033;-73
2022/01/27 02:01:24;;;;;;;63.83;28.35;;;4.10;95.10;;;;;;4990529;28;20069;-73
2022/01/27 02:03:49;;;;;;;69.85;31.75;;;4.00;95.10;;;;;;4992580;28;20493;-73
2022/01/27 02:06:33;;;;;;;64.13;28.65;;;4.00;95.10;;;;;;4989390;28;20026;-73
2022/01/27 02:19:39;;;;;;;60.70;29.80;;;4.10;94.70;;;;;;4985824;28;20045;-73
2022/01/27 02:22:05;;;;;;;84.80;28.08;;;4.10;94.40;;;;;;4980270;28;20038;-73
2022/01/27 02:24:35;;;;;;;60.65;29.65;;;4.10;94.40;;;;;;4985238;28;20373;-73
2022/01/27 02:27:02;;;;;;;67.25;31.52;;;4.10;94.40;;;;;;4986024;28;20069;-73
2022/01/27 02:29:28;;;;;;;60.35;30.05;;;4.10;94.50;;;;;;4983538;28;20081;-73
2022/01/27 02:31:55;;;;;;;63.38;28.88;;;4.10;94.40;;;;;;4990316;28;20084;-73
2022/01/27 02:34:21;;;;;;;60.97;27.73;;;4.20;94.10;;;;;;4981892;28;20045;-73
2022/01/27 02:36:48;;;;;;;54.80;27.27;;;4.10;94.20;;;;;;4978457;28;20081;-73
2022/01/27 02:39:14;;;;;;;53.22;25.92;;;4.10;94.20;;;;;;4985549;28;20038;-73
2022/01/27 02:41:54;;;;;;;61.28;30.15;;;4.10;94.40;;;;;;4986838;28;20031;-73
2022/01/27 02:44:37;;;;;;;60.25;29.25;;;4.10;94.20;;;;;;4987504;28;20030;-73
2022/01/27 02:47:03;;;;;;;55.60;27.15;;;4.10;94.20;;;;;;4993659;28;20035;-73
2022/01/27 02:49:28;;;;;;;59.97;28.77;;;4.20;93.80;;;;;;4983248;28;20018;-73
2022/01/27 02:51:54;;;;;;;50.00;22.75;;;4.20;93.80;;;;;;4976601;28;20699;-73
2022/01/27 02:54:20;;;;;;;60.03;28.48;;;4.20;93.50;;;;;;4986654;28;20046;-73
2022/01/27 02:56:47;;;;;;;57.72;28.65;;;4.20;93.60;;;;;;4980999;28;20030;-73
2022/01/27 02:59:17;;;;;;;66.93;28.45;;;4.20;93.60;;;;;;4985226;28;20366;-73
2022/01/27 03:01:47;;;;;;;53.07;29.07;;;4.20;93.50;;;;;;4986567;28;20038;-73
2022/01/27 03:04:13;;;;;;;46.20;23.53;;;4.20;93.50;;;;;;4989284;28;20742;-73
2022/01/27 03:06:39;;;;;;;53.67;27.58;;;4.20;93.50;;;;;;4985083;28;20283;-73
2022/01/27 03:09:05;;;;;;;53.80;25.05;;;4.20;93.30;;;;;;4986678;28;20101;-73
2022/01/27 03:11:51;;;;;;;58.30;30.70;;;4.20;93.20;;;;;;4981432;28;20120;-73
2022/01/27 03:14:20;;;;;;;51.90;26.52;;;4.20;93.40;;;;;;4980248;28;20065;-73
2022/01/27 03:16:47;;;;;;;48.28;24.90;;;4.20;93.20;;;;;;4981231;28;20110;-73
2022/01/27 03:19:13;;;;;;;60.58;28.42;;;4.20;93.40;;;;;;4982692;28;20090;-73
2022/01/27 03:21:39;;;;;;;51.15;26.88;;;4.20;93.10;;;;;;4983479;28;20179;-73
2022/01/27 03:24:05;;;;;;;56.63;28.83;;;4.30;92.80;;;;;;4989689;28;20030;-73
2022/01/27 03:26:31;;;;;;;39.45;22.23;;;4.20;93.20;;;;;;4984100;28;20065;-73
2022/01/27 03:28:58;;;;;;;47.72;23.95;;;4.30;92.80;;;;;;4982173;28;20049;-73
2022/01/27 03:31:23;;;;;;;52.97;25.02;;;4.20;92.80;;;;;;4975279;28;20355;-73
2022/01/27 03:33:49;;;;;;;54.38;26.58;;;4.30;92.80;;;;;;4983815;28;20062;-73
2022/01/27 03:36:16;;;;;;;47.13;25.38;;;4.30;92.90;;;;;;4984612;28;20424;-73
2022/01/27 03:38:42;;;;;;;44.80;22.65;;;4.30;93.00;;;;;;4988810;28;20109;-73
2022/01/27 03:41:09;;;;;;;56.00;29.50;;;4.30;92.50;;;;;;4988756;28;20117;-73
2022/01/27 03:43:36;;;;;;;58.00;28.67;;;4.30;92.30;;;;;;4976472;28;20160;-73
2022/01/27 03:46:03;;;;;;;56.67;29.23;;;4.30;92.50;;;;;;4982419;28;20038;-73
2022/01/27 03:48:29;;;;;;;63.90;30.17;;;4.30;92.50;;;;;;4984487;28;20073;-73
2022/01/27 03:50:54;;;;;;;49.03;26.00;;;4.30;92.60;;;;;;4982231;28;20034;-73
2022/01/27 03:53:20;;;;;;;59.90;28.75;;;4.30;92.40;;;;;;4988417;28;20859;-73
2022/01/27 03:55:45;;;;;;;44.80;23.33;;;4.30;92.50;;;;;;4981776;28;20105;-73
2022/01/27 03:58:11;;;;;;;49.35;26.40;;;4.40;92.00;;;;;;4986020;28;20050;-73
2022/01/27 04:00:37;;;;;;;45.50;25.73;;;4.40;92.10;;;;;;4984667;28;20038;-73
2022/01/27 04:03:07;;;;;;;50.72;26.55;;;4.40;92.10;;;;;;4982650;28;20370;-73
2022/01/27 04:05:37;;;;;;;48.92;25.10;;;4.30;92.40;;;;;;4985196;28;20220;-73
2022/01/27 04:08:05;;;;;;;40.83;23.88;;;4.30;92.30;;;;;;4984842;28;20054;-73
2022/01/27 04:10:31;;;;;;;60.65;30.60;;;4.30;92.40;;;;;;4987394;28;20081;-73
2022/01/27 04:12:57;;;;;;;50.95;24.92;;;4.30;92.40;;;;;;4981501;28;20061;-73
2022/01/27 04:15:23;;;;;;;47.22;22.02;;;4.20;92.80;;;;;;4982092;28;20081;-73
2022/01/27 04:17:49;;;;;;;48.63;26.55;;;4.30;92.70;;;;;;5001947;28;20382;-73
2022/01/27 04:20:15;;;;;;;44.55;22.75;;;4.20;93.00;;;;;;4979377;28;20037;-73
2022/01/27 04:22:40;;;;;;;44.78;23.90;;;4.10;93.30;;;;;;4990440;28;20120;-73
2022/01/27 04:25:07;;;;;;;52.97;25.75;;;4.10;93.60;;;;;;4992515;28;20124;-73
2022/01/27 04:27:36;;;;;;;52.08;26.98;;;4.10;93.90;;;;;;4983352;28;20030;-73
2022/01/27 04:30:04;;;;;;;46.97;26.00;;;4.10;94.40;;;;;;4985023;28;20362;-73
2022/01/27 04:32:36;;;;;;;55.38;26.27;;;4.00;94.60;;;;;;4993659;28;20073;-73
2022/01/27 04:35:05;;;;;;;65.80;31.55;;;4.00;94.90;;;;;;4979134;28;20407;-73
2022/01/27 04:37:35;;;;;;;62.20;31.17;;;3.90;95.20;;;;;;4985395;28;20022;-73
2022/01/27 04:40:08;;;;;;;67.38;30.83;;;3.90;95.30;;;;;;4991876;28;20476;-73
2022/01/27 04:43:15;;;;;;;64.75;31.83;;;3.90;95.40;;;;;;4988079;28;20030;-73
2022/01/27 04:45:32;;;;;;;67.30;31.95;;;3.80;95.70;;;;;;4991391;28;20039;-73
2022/01/27 04:48:08;;;;;;;58.30;29.52;;;3.80;95.80;;;;;;4991982;28;20137;-73
2022/01/27 04:50:33;;;;;;;53.75;28.02;;;3.90;95.90;;;;;;4981591;28;20390;-73
2022/01/27 04:53:01;;;;;;;64.15;31.58;;;3.80;96.00;;;;;;4993576;28;20450;-73
2022/01/27 04:55:27;;;;;;;62.97;29.15;;;3.80;96.20;;;;;;4983678;28;20411;-73
2022/01/27 04:58:07;;;;;;;55.60;26.80;;;3.70;96.30;;;;;;4989008;28;20060;-73
2022/01/27 05:00:33;;;;;;;65.78;33.20;;;3.70;96.40;;;;;;4986838;28;20027;-72
2022/01/27 05:03:00;;;;;;;59.05;29.50;;;3.70;96.50;;;;;;4984446;28;20271;-73
2022/01/27 05:05:26;;;;;;;61.60;31.88;;;3.70;96.60;;;;;;4973095;28;20027;-73
2022/01/27 05:07:58;;;;;;;57.05;26.27;;;3.70;96.70;;;;;;4981814;28;20369;-72
2022/01/27 05:10:28;;;;;;;65.10;32.38;;;3.70;96.80;;;;;;4982292;28;20034;-72
2022/01/27 05:13:00;;;;;;;65.90;30.08;;;3.70;96.90;;;;;;4982987;28;20023;-72
2022/01/27 05:15:26;;;;;;;70.30;33.28;;;3.70;96.90;;;;;;4989471;28;20049;-73
2022/01/27 05:17:52;;;;;;;66.18;30.58;;;3.70;97.00;;;;;;4985908;28;20030;-72
2022/01/27 05:20:17;;;;;;;77.70;37.03;;;3.60;97.10;;;;;;4981978;28;20035;-71
2022/01/27 05:22:43;;;;;;;69.80;33.00;;;3.60;97.00;;;;;;4979855;28;20045;-71
2022/01/27 05:25:09;;;;;;;71.93;33.17;;;3.60;97.10;;;;;;4985174;28;20041;-71
2022/01/27 05:27:35;;;;;;;67.72;33.20;;;3.60;97.20;;;;;;4985385;28;20496;-71
2022/01/27 05:30:00;;;;;;;72.55;33.33;;;3.70;97.20;;;;;;4988448;28;20035;-71
2022/01/27 05:32:26;;;;;;;44.67;22.92;;;3.60;97.20;;;;;;4992588;28;20053;-71
2022/01/27 05:34:51;;;;;;;56.42;28.77;;;3.60;97.10;;;;;;4987076;28;20026;-71
2022/01/27 05:37:17;;;;;;;50.88;26.38;;;3.60;97.20;;;;;;4978592;28;20038;-71
2022/01/27 05:39:42;;;;;;;64.35;32.38;;;3.70;97.20;;;;;;5000508;28;20030;-72
2022/01/27 05:42:08;;;;;;;58.38;29.30;;;3.70;97.10;;;;;;4989484;28;20034;-72
2022/01/27 05:44:34;;;;;;;60.63;29.23;;;3.60;97.20;;;;;;4985860;28;20034;-72
2022/01/27 05:46:59;;;;;;;64.70;31.77;;;3.60;97.20;;;;;;4982025;28;20026;-72
2022/01/27 05:49:25;;;;;;;58.80;28.90;;;3.70;97.30;;;;;;4984287;28;20370;-72
2022/01/27 05:51:50;;;;;;;63.70;32.17;;;3.60;97.30;;;;;;4986736;28;20157;-72
2022/01/27 05:54:16;;;;;;;60.42;29.23;;;3.60;97.30;;;;;;4991100;28;20030;-71
2022/01/27 05:56:42;;;;;;;49.25;26.10;;;3.60;97.30;;;;;;4991901;28;20132;-72
2022/01/27 05:59:07;;;;;;;65.28;30.30;;;3.60;97.40;;;;;;4993202;28;20022;-72
2022/01/27 06:01:33;;;;;;;59.17;28.60;;;3.60;97.50;;;;;;4996691;28;20049;-72
2022/01/27 06:03:58;;;;;;;63.58;30.38;;;3.70;97.50;;;;;;4979932;28;20061;-71
2022/01/27 06:06:24;;;;;;;56.78;28.65;;;3.60;97.60;;;;;;4998556;28;20053;-71
2022/01/27 06:08:49;;;;;;;56.42;26.00;;;3.60;97.60;;;;;;4988949;28;20048;-77
2022/01/27 06:11:15;;;;;;;47.80;24.23;;;3.70;97.50;;;;;;4987773;28;20038;-71
2022/01/27 06:13:40;;;;;;;48.45;24.73;;;3.60;97.60;;;;;;4986013;28;20053;-71
2022/01/27 06:16:10;;;;;;;45.03;23.23;;;3.60;97.50;;;;;;4977944;28;20461;-71
2022/01/27 06:18:39;;;;;;;57.28;26.77;;;3.70;97.50;;;;;;4976410;28;20122;-71
2022/01/27 06:21:06;;;;;;;52.08;27.75;;;3.70;97.40;;;;;;4978624;28;20031;-71
2022/01/27 06:23:32;;;;;;;63.35;29.20;;;3.70;97.40;;;;;;4992248;28;20023;-71
2022/01/27 06:26:02;;;;;;;63.60;29.95;;;3.70;97.40;;;;;;4989805;28;20027;-71
2022/01/27 06:28:27;;;;;;;64.43;31.17;;;3.70;97.40;;;;;;4988777;28;20061;-71
2022/01/27 06:30:53;;;;;;;60.60;28.73;;;3.70;97.30;;;;;;4985881;28;20054;-71
2022/01/27 06:33:19;;;;;;;62.33;31.00;;;3.70;97.40;;;;;;4991816;28;20030;-71
2022/01/27 06:35:44;;;;;;;57.15;29.17;;;3.80;97.30;;;;;;4986715;28;20038;-71
2022/01/27 06:38:10;;;;;;;58.90;29.48;;;3.80;97.30;;;;;;4987915;28;20026;-71
2022/01/27 06:40:35;;;;;;;58.28;28.13;;;3.70;97.30;;;;;;4988654;28;20030;-71
2022/01/27 06:43:01;;;;;;;53.47;27.33;;;3.80;97.30;;;;;;4985707;28;20469;-71
2022/01/27 06:45:27;;;;;;;52.00;26.00;;;3.80;97.20;;;;;;4982752;28;20378;-71
2022/01/27 06:47:53;;;;;;;61.80;26.85;;;3.80;97.30;;;;;;4992435;28;20032;-71
2022/01/27 06:50:19;;;;;;;51.22;26.35;;;3.80;97.30;;;;;;4987001;28;20038;-71
2022/01/27 06:52:44;;;;;;;50.50;25.92;;;3.80;97.40;;;;;;4976965;28;20033;-71
2022/01/27 06:55:12;;;;;;;52.95;27.70;;;3.80;97.40;;;;;;4980970;28;20045;-71
2022/01/27 06:57:38;;;;;;;44.47;24.38;;;3.80;97.30;;;;;;4992651;28;20033;-71
2022/01/27 07:00:05;;;;;;;59.22;27.02;;;3.80;97.20;;;;;;4991002;28;20378;-71
2022/01/27 07:02:31;;;;;;;46.70;23.73;;;3.80;97.20;;;;;;4991539;28;20076;-71
2022/01/27 07:04:57;;;;;;;46.25;23.50;;;3.80;97.20;;;;;;4995008;28;20050;-71
2022/01/27 07:07:22;;;;;;;35.28;19.58;;;3.80;97.20;;;;;;4988282;28;20041;-71
2022/01/27 07:09:48;;;;;;;41.45;20.95;;;3.90;97.20;;;;;;4994110;28;20034;-71
2022/01/27 07:12:13;;;;;;;49.55;25.00;;;3.90;97.10;;;;;;4992261;28;20022;-71
2022/01/27 07:14:39;;;;;;;59.08;26.33;;;3.90;97.10;;;;;;4991812;28;20161;-71
2022/01/27 07:17:05;;;;;;;56.72;26.77;;;3.90;97.20;;;;;;4980538;28;20070;-71
2022/01/27 07:19:31;;;;;;;54.92;27.92;;;3.90;97.20;;;;;;4990858;28;20042;-71
2022/01/27 07:21:56;;;;;;;49.08;24.40;;;3.90;97.30;;;;;;4989206;28;20132;-71
2022/01/27 07:24:22;;;;;;;59.25;26.98;;;3.90;97.30;;;;;;4992076;28;20478;-71
2022/01/27 07:26:47;;;;;;;59.03;29.23;;;3.90;97.30;;;;;;4993498;28;20374;-71
2022/01/27 07:29:13;;;;;;;63.03;29.90;;;3.90;97.30;;;;;;4999460;28;20366;-71
2022/01/27 07:31:38;;;;;;;59.38;28.00;;;3.90;97.40;;;;;;4990434;28;20152;-71
2022/01/27 07:34:04;;;;;;;39.03;19.30;;;3.90;97.40;;;;;;4990925;28;20022;-71
2022/01/27 07:36:31;;;;;;;46.58;22.77;;;3.90;97.40;;;;;;4988868;28;20028;-71
2022/01/27 07:38:57;;;;;;;60.72;29.90;;;4.00;97.40;;;;;;4991473;28;20161;-71
2022/01/27 07:41:22;;;;;;;66.88;29.92;;;4.00;97.40;;;;;;4990977;28;20135;-71
2022/01/27 07:43:48;;;;;;;51.55;25.40;;;4.00;97.50;;;;;;4992155;28;20548;-71
2022/01/27 07:46:14;;;;;;;55.38;29.65;;;4.00;97.50;;;;;;4986778;28;20041;-71
2022/01/27 07:48:40;;;;;;;55.80;27.55;;;4.00;97.50;;;;;;4971654;28;20027;-71
2022/01/27 07:51:08;;;;;;;45.47;21.92;;;4.10;97.50;;;;;;4984526;28;20505;-71
2022/01/27 07:53:34;;;;;;;45.08;24.67;;;4.10;97.50;;;;;;4991084;28;20024;-71
2022/01/27 07:56:02;;;;;;;54.03;27.60;;;4.10;97.50;;;;;;4990447;28;20105;-71
2022/01/27 07:58:28;;;;;;;50.72;23.13;;;4.10;97.50;;;;;;4992151;28;20023;-71
2022/01/27 08:00:54;;;;;;;42.25;23.83;;;4.10;97.60;;;;;;4977031;28;20062;-71
2022/01/27 08:03:19;;;;;;;44.63;19.00;;;4.10;97.50;;;;;;4993589;28;20445;-71
2022/01/27 08:05:45;;;;;;;53.70;24.60;;;4.20;97.50;;;;;;4977081;28;20094;-71
2022/01/27 08:08:10;;;;;;;44.92;22.50;;;4.20;97.50;;;;;;4988673;28;20027;-71
2022/01/27 08:10:38;;;;;;;40.03;19.60;;;4.20;97.50;;;;;;4994588;28;20371;-71
2022/01/27 08:13:06;;;;;;;30.70;17.80;;;4.20;97.50;;;;;;4991073;28;20470;-71
2022/01/27 08:15:32;;;;;;;40.50;21.02;;;4.30;97.50;;;;;;4986583;28;20583;-71
2022/01/27 08:17:58;;;;;;;38.53;19.45;;;4.30;97.40;;;;;;4977930;28;20034;-71
2022/01/27 08:20:23;;;;;;;37.53;20.52;;;4.30;97.40;;;;;;4982248;28;20076;-71
2022/01/27 08:22:51;;;;;;;34.55;19.13;;;4.30;97.40;;;;;;4979820;28;20046;-71
2022/01/27 08:25:18;;;;;;;26.92;14.57;;;4.40;97.30;;;;;;4990811;28;20101;-71
2022/01/27 08:27:46;;;;;;;24.60;14.43;;;4.40;97.30;;;;;;4985373;28;20458;-71
2022/01/27 08:30:15;;;;;;;30.70;15.43;;;4.40;97.30;;;;;;4990056;28;20041;-71
2022/01/27 08:32:57;;;;;;;33.17;18.77;;;4.40;97.30;;;;;;4990590;28;20023;-71
2022/01/27 08:35:23;;;;;;;34.40;17.90;;;4.40;97.30;;;;;;4988415;28;20024;-71
2022/01/27 08:37:49;;;;;;;38.67;17.38;;;4.50;97.30;;;;;;4989416;28;20378;-71
2022/01/27 08:40:16;;;;;;;34.83;18.30;;;4.50;97.30;;;;;;4989465;28;20030;-71
2022/01/27 08:42:43;;;;;;;32.03;17.13;;;4.50;97.30;;;;;;4990766;28;20030;-71
2022/01/27 08:45:14;;;;;;;27.95;13.70;;;4.50;97.30;;;;;;4990539;28;20069;-71
2022/01/27 08:47:40;;;;;;;36.22;19.05;;;4.50;97.30;;;;;;4981300;28;20034;-71
2022/01/27 08:50:08;;;;;;;29.85;16.35;;;4.50;97.30;;;;;;4988325;28;20440;-71
2022/01/27 08:52:34;;;;;;;38.03;19.88;;;4.60;97.20;;;;;;4988178;28;20018;-71
2022/01/27 08:55:00;;;;;;;23.90;13.57;;;4.60;97.30;;;;;;4990788;28;20084;-71
2022/01/27 08:57:26;;;;;;;34.83;18.45;;;4.60;97.30;;;;;;4989314;28;20034;-71
2022/01/27 08:59:53;;;;;;;33.92;18.90;;;4.60;97.30;;;;;;4998657;28;20096;-71
2022/01/27 09:02:20;;;;;;;31.92;15.57;;;4.60;97.30;;;;;;4995337;28;20472;-71
2022/01/27 09:04:45;;;;;;;28.55;16.70;;;4.60;97.40;;;;;;4995157;28;20022;-71
2022/01/27 09:07:11;;;;;;;24.35;12.88;;;4.60;97.40;;;;;;4980467;28;20382;-71
2022/01/27 09:09:36;;;;;;;29.80;16.75;;;4.70;97.40;;;;;;4990983;28;20037;-70
2022/01/27 09:12:02;;;;;;;25.50;13.20;;;4.70;97.30;;;;;;4990759;28;20030;-71
2022/01/27 09:14:30;;;;;;;21.15;12.40;;;4.60;97.40;;;;;;4990701;28;20068;-71
2022/01/27 09:16:56;;;;;;;27.92;15.35;;;4.70;97.50;;;;;;4993098;28;20026;-71
2022/01/27 09:19:24;;;;;;;31.02;18.23;;;4.80;97.40;;;;;;4993435;28;20030;-71
2022/01/27 09:21:50;;;;;;;29.67;16.98;;;4.80;97.40;;;;;;4991463;28;20026;-71
2022/01/27 09:24:18;;;;;;;27.88;16.40;;;4.80;97.50;;;;;;4993355;28;20030;-71
2022/01/27 09:29:18;;;;;;;28.77;16.20;;;4.80;97.50;;;;;;4993679;28;20018;-71
2022/01/27 09:31:44;;;;;;;27.17;14.85;;;4.90;97.60;;;;;;4992446;28;20046;-71
2022/01/27 09:34:10;;;;;;;32.45;14.68;;;4.90;97.60;;;;;;4992453;28;20034;-71
2022/01/27 09:36:36;;;;;;;21.15;12.73;;;4.90;97.70;;;;;;4980125;28;20418;-71
2022/01/27 09:39:01;;;;;;;29.58;15.38;;;4.90;97.70;;;;;;4992555;28;20129;-71
2022/01/27 09:41:28;;;;;;;25.08;13.90;;;4.90;97.70;;;;;;4993537;28;20109;-71
2022/01/27 09:43:54;;;;;;;24.83;14.32;;;4.90;97.80;;;;;;4988916;28;20041;-71
2022/01/27 09:46:25;;;;;;;18.52;10.23;;;4.90;97.80;;;;;;4992204;28;20041;-71
2022/01/27 09:48:52;;;;;;;24.05;14.52;;;4.90;97.70;;;;;;4992802;28;20110;-71
2022/01/27 09:53:44;;;;;;;20.17;9.90;;;4.90;97.80;;;;;;4988444;28;20077;-71
2022/01/27 09:56:10;;;;;;;16.50;9.85;;;5.00;97.70;;;;;;4986797;28;20060;-71
2022/01/27 09:58:35;;;;;;;23.25;14.05;;;5.00;97.70;;;;;;5005197;28;20156;-71
2022/01/27 10:01:01;;;;;;;24.38;13.88;;;5.00;97.70;;;;;;4985731;28;20085;-71
2022/01/27 10:03:28;;;;;;;18.33;10.82;;;5.00;97.80;;;;;;4988469;28;20548;-71
2022/01/27 10:06:13;;;;;;;26.90;15.07;;;5.10;97.70;;;;;;4990066;28;20053;-71
2022/01/27 10:08:42;;;;;;;23.98;14.50;;;5.10;97.70;;;;;;4993287;28;20032;-71
2022/01/27 10:11:16;;;;;;;25.38;15.68;;;5.10;97.70;;;;;;4992871;28;20030;-71
2022/01/27 10:13:44;;;;;;;24.65;14.57;;;5.20;97.70;;;;;;4992684;28;20033;-71
2022/01/27 10:16:29;;;;;;;20.52;13.07;;;5.20;97.70;;;;;;4992395;28;20531;-71
2022/01/27 10:19:05;;;;;;;24.40;14.32;;;5.30;97.70;;;;;;4981718;28;20366;-71
2022/01/27 10:21:32;;;;;;;22.88;14.07;;;5.30;97.70;;;;;;4990768;28;20378;-71
2022/01/27 10:24:26;;;;;;;28.23;15.07;;;5.30;97.70;;;;;;4986340;28;20096;-71
2022/01/27 10:27:17;;;;;;;26.42;15.77;;;5.30;97.70;;;;;;4993497;28;20038;-71
2022/01/27 10:30:02;;;;;;;21.15;14.02;;;5.40;97.70;;;;;;4999620;28;20015;-71
2022/01/27 10:32:46;;;;;;;21.10;12.70;;;5.40;97.70;;;;;;4986564;28;20022;-70
2022/01/27 10:35:14;;;;;;;27.52;15.88;;;5.50;97.60;;;;;;4986081;28;20045;-71
2022/01/27 10:37:56;;;;;;;26.08;16.65;;;5.50;97.60;;;;;;4990848;28;20122;-71
2022/01/27 10:40:22;;;;;;;23.13;14.82;;;5.50;97.60;;;;;;4991263;28;20434;-70
2022/01/27 10:42:58;;;;;;;26.88;15.98;;;5.50;97.70;;;;;;4997228;28;20072;-70
2022/01/27 10:45:24;;;;;;;22.85;14.88;;;5.50;97.70;;;;;;4994521;28;20362;-70
2022/01/27 10:47:49;;;;;;;26.90;15.75;;;5.60;97.70;;;;;;4992410;28;20022;-70
2022/01/27 10:50:16;;;;;;;23.88;15.70;;;5.60;97.70;;;;;;4986304;28;20072;-70
2022/01/27 10:52:52;;;;;;;18.25;11.52;;;5.60;97.70;;;;;;4987349;28;20018;-70
2022/01/27 10:55:20;;;;;;;27.83;16.38;;;5.60;97.70;;;;;;4988788;28;20462;-70
2022/01/27 10:57:50;;;;;;;23.15;15.90;;;5.60;97.70;;;;;;4996059;28;20132;-70
2022/01/27 11:00:21;;;;;;;22.58;14.60;;;5.70;97.80;;;;;;4997480;28;20073;-70
2022/01/27 11:02:51;;;;;;;24.52;15.43;;;5.70;97.80;;;;;;4988804;28;20069;-70
2022/01/27 11:05:21;;;;;;;20.48;13.88;;;5.80;97.80;;;;;;4988987;28;20492;-70
2022/01/27 11:07:47;;;;;;;23.55;14.95;;;5.80;97.80;;;;;;4988983;28;20030;-69
2022/01/27 11:10:18;;;;;;;29.52;16.25;;;5.80;97.80;;;;;;4981014;28;20046;-70
2022/01/27 11:12:45;;;;;;;23.02;15.30;;;5.80;97.90;;;;;;4990808;28;20085;-70
2022/01/27 11:15:16;;;;;;;26.70;14.32;;;5.90;97.90;;;;;;4991602;28;20042;-71
2022/01/27 11:17:43;;;;;;;30.80;15.85;;;5.90;97.90;;;;;;4983539;28;20022;-70
2022/01/27 11:20:23;;;;;;;27.05;14.07;;;6.00;97.90;;;;;;4981323;28;20041;-71
2022/01/27 11:27:53;;;;;;;24.77;11.50;;;6.20;97.90;;;;;;4989721;28;20046;-70
2022/01/27 11:30:28;;;;;;;18.00;9.85;;;6.20;97.80;;;;;;4990482;28;20462;-71
2022/01/27 11:33:08;;;;;;;29.65;11.52;;;6.20;97.70;;;;;;4988053;28;20028;-71
2022/01/27 11:35:33;;;;;;;19.17;8.73;;;6.20;97.70;;;;;;4987979;28;20026;-71
2022/01/27 11:38:03;;;;;;;19.90;9.65;;;6.30;97.70;;;;;;4989901;28;20049;-71
2022/01/27 11:40:44;;;;;;;17.60;9.52;;;6.30;97.70;;;;;;4986363;28;20036;-70
2022/01/27 11:43:16;;;;;;;15.07;7.70;;;6.40;97.70;;;;;;4988821;28;20033;-71
2022/01/27 11:45:49;;;;;;;19.73;9.68;;;6.50;97.60;;;;;;4991069;28;20022;-71
2022/01/27 11:48:23;;;;;;;19.33;9.43;;;6.50;97.60;;;;;;4986968;28;20022;-69
2022/01/27 11:51:09;;;;;;;17.00;8.50;;;6.60;97.60;;;;;;4982937;28;20034;-72
2022/01/27 11:53:44;;;;;;;26.02;10.80;;;6.70;97.50;;;;;;4986991;28;20030;-72
2022/01/27 11:56:31;;;;;;;27.10;9.65;;;6.70;97.30;;;;;;4990624;28;20037;-72
2022/01/27 11:59:01;;;;;;;19.58;7.93;;;6.70;97.20;;;;;;4986709;28;20041;-72
2022/01/27 12:01:28;;;;;;;24.17;10.23;;;6.80;97.20;;;;;;4980657;28;20042;-72
2022/01/27 12:04:06;;;;;;;18.48;8.55;;;6.90;97.00;;;;;;4988079;28;20041;-72
2022/01/27 12:06:40;;;;;;;26.50;9.70;;;6.80;97.00;;;;;;4987153;28;20405;-72
2022/01/27 12:09:21;;;;;;;21.55;6.95;;;6.90;97.00;;;;;;4989921;28;20293;-72
2022/01/27 12:12:00;;;;;;;18.03;8.47;;;6.90;96.80;;;;;;4990823;28;20046;-72
2022/01/27 12:14:49;;;;;;;18.98;7.65;;;6.90;96.80;;;;;;4986324;28;20054;-72
2022/01/27 12:17:15;;;;;;;21.52;7.38;;;7.00;96.70;;;;;;4987103;28;20026;-72
2022/01/27 12:19:53;;;;;;;25.23;7.82;;;7.00;96.60;;;;;;4988331;28;20617;-72
2022/01/27 12:22:20;;;;;;;21.58;8.15;;;7.10;96.50;;;;;;4988268;28;20023;-72
2022/01/27 12:24:56;;;;;;;17.92;7.95;;;7.10;96.50;;;;;;4989358;28;20465;-74
2022/01/27 12:27:23;;;;;;;20.88;7.15;;;7.20;96.40;;;;;;4992011;28;20109;-74
2022/01/27 12:29:51;;;;;;;18.08;7.53;;;7.20;96.30;;;;;;4989424;28;20026;-74
2022/01/27 12:32:17;;;;;;;24.38;7.35;;;7.30;96.20;;;;;;4989555;28;20018;-74
2022/01/27 12:35:01;;;;;;;20.70;6.50;;;7.30;96.20;;;;;;4990268;28;20085;-74
2022/01/27 12:37:37;;;;;;;16.98;5.55;;;7.30;95.90;;;;;;4988328;28;20462;-74
2022/01/27 12:40:19;;;;;;;17.50;5.22;;;7.40;95.80;;;;;;4990756;28;20081;-73
2022/01/27 12:43:00;;;;;;;13.10;5.15;;;7.40;95.60;;;;;;4995222;28;20092;-74
2022/01/27 12:45:30;;;;;;;15.48;5.18;;;7.50;95.60;;;;;;4990419;28;20492;-74
2022/01/27 12:47:58;;;;;;;16.75;5.03;;;7.50;95.60;;;;;;4991385;28;20030;-74
2022/01/27 12:50:24;;;;;;;14.38;5.10;;;7.60;95.40;;;;;;4980273;28;20521;-73
2022/01/27 12:52:56;;;;;;;23.67;5.43;;;7.60;95.30;;;;;;4979769;28;20138;-73
2022/01/27 12:55:28;;;;;;;20.35;4.93;;;7.60;94.80;;;;;;4994497;28;20296;-73
2022/01/27 12:57:58;;;;;;;11.85;3.70;;;7.70;94.80;;;;;;4995561;28;20092;-74
2022/01/27 13:00:25;;;;;;;19.63;5.22;;;7.70;95.00;;;;;;4994246;28;20359;-74
2022/01/27 13:02:50;;;;;;;15.02;3.88;;;7.60;95.10;;;;;;4993187;28;20036;-73
2022/01/27 13:05:16;;;;;;;26.83;4.22;;;7.60;95.00;;;;;;4991527;28;20105;-74
2022/01/27 13:07:46;;;;;;;21.85;4.53;;;7.50;95.50;;;;;;4977267;28;20121;-74
2022/01/27 13:10:17;;;;;;;12.65;3.20;;;7.40;95.80;;;;;;4994304;28;20034;-74
2022/01/27 13:15:13;;;;;;;15.68;3.50;;;7.40;94.90;;;;;;4993576;28;20045;-74
2022/01/27 13:17:46;;;;;;;17.05;3.92;;;7.40;94.10;;;;;;4991317;28;20449;-74
2022/01/27 13:20:28;;;;;;;15.63;3.22;;;7.80;93.70;;;;;;4991429;28;20466;-74
2022/01/27 13:23:09;;;;;;;12.95;3.03;;;8.20;92.70;;;;;;4993899;28;20393;-74
2022/01/27 13:25:40;;;;;;;8.63;2.28;;;8.30;91.20;;;;;;4993907;28;20022;-74
2022/01/27 13:28:07;;;;;;;12.93;2.65;;;8.40;90.70;;;;;;4985832;28;20023;-74
2022/01/27 13:30:35;;;;;;;14.27;2.97;;;8.30;90.50;;;;;;4989742;28;20062;-74
2022/01/27 13:33:02;;;;;;;10.73;2.65;;;8.20;91.10;;;;;;4990475;28;20049;-74